createdAt,value
2018-06-12T00:00:17.014Z,100468.62
2018-06-12T00:02:46.135Z,100466.44
2018-06-12T00:05:14.952Z,100460.37
2018-06-12T00:07:43.977Z,100462.27
2018-06-12T00:10:13.151Z,100466.83
2018-06-12T00:12:41.933Z,100457.48
2018-06-12T00:15:11.293Z,100453.66
2018-06-12T00:17:40.103Z,100446.01
2018-06-12T00:20:08.883Z,100455.49
2018-06-12T00:22:38.076Z,100456.08
2018-06-12T00:25:06.817Z,100448.42
2018-06-12T00:27:35.664Z,100447.25
2018-06-12T00:30:04.676Z,100448.09
2018-06-12T00:32:33.341Z,100451.03
2018-06-12T00:35:02.079Z,100439.89
2018-06-12T00:37:31.601Z,100448.23
2018-06-12T00:40:00.587Z,100454.45
2018-06-12T00:42:29.238Z,100453.05
2018-06-12T00:44:57.874Z,100447.88
2018-06-12T00:47:26.516Z,100448.45
2018-06-12T00:49:55.138Z,100450.04
2018-06-12T00:52:23.766Z,100457.25
2018-06-12T00:54:52.715Z,100455.06
2018-06-12T00:57:21.769Z,100459.91
2018-06-12T00:59:51.030Z,100466.05
2018-06-12T01:02:19.693Z,100467.02
2018-06-12T01:04:49.027Z,100464.82
2018-06-12T01:07:18.042Z,100462.02
2018-06-12T01:09:46.955Z,100466.88
2018-06-12T01:12:16.170Z,100473.07
2018-06-12T01:14:45.043Z,100474.64
2018-06-12T01:17:13.917Z,100474.59
2018-06-12T01:19:42.661Z,100468.84
2018-06-12T01:22:11.948Z,100484.42
2018-06-12T01:24:40.706Z,100476.58
2018-06-12T01:27:09.414Z,100480.45
2018-06-12T01:29:38.113Z,100473.34
2018-06-12T01:32:06.794Z,100473.03
2018-06-12T01:34:35.546Z,100472.31
2018-06-12T01:37:04.258Z,100475.59
2018-06-12T01:39:32.937Z,100471.48
2018-06-12T01:42:01.814Z,100470.19
2018-06-12T01:44:30.590Z,100471.72
2018-06-12T01:46:59.385Z,100472.31
2018-06-12T01:49:28.191Z,100477.95
2018-06-12T01:51:57.169Z,100471.70
2018-06-12T01:54:26.465Z,100471.17
2018-06-12T01:56:55.975Z,100475.80
2018-06-12T01:59:24.680Z,100480.04
2018-06-12T02:01:53.424Z,100478.63
2018-06-12T02:04:22.210Z,100480.48
2018-06-12T02:06:50.896Z,100477.78
2018-06-12T02:15:00.248Z,100482.16
2018-06-12T02:17:28.960Z,100484.19
2018-06-12T02:19:57.960Z,100478.19
2018-06-12T02:22:26.670Z,100481.78
2018-06-12T02:24:55.591Z,100486.02
2018-06-12T02:27:24.282Z,100481.39
2018-06-12T02:29:52.991Z,100485.63
2018-06-12T02:32:21.658Z,100485.89
2018-06-12T02:34:50.468Z,100485.17
2018-06-12T02:37:19.904Z,100482.53
2018-06-12T02:39:48.895Z,100485.91
2018-06-12T02:42:17.619Z,100492.58
2018-06-12T02:44:46.904Z,100489.88
2018-06-12T02:47:16.761Z,100497.59
2018-06-12T02:49:46.752Z,100498.28
2018-06-12T02:52:15.427Z,100502.34
2018-06-12T02:54:44.092Z,100503.16
2018-06-12T02:57:12.884Z,100502.57
2018-06-12T02:59:42.121Z,100502.38
2018-06-12T03:02:11.197Z,100505.23
2018-06-12T03:04:40.208Z,100507.64
2018-06-12T03:07:08.959Z,100504.83
2018-06-12T03:09:37.677Z,100510.23
2018-06-12T03:12:06.436Z,100508.36
2018-06-12T03:14:35.201Z,100513.46
2018-06-12T03:17:04.280Z,100500.81
2018-06-12T03:19:32.964Z,100508.36
2018-06-12T03:22:01.630Z,100504.60
2018-06-12T03:24:30.264Z,100509.74
2018-06-12T03:26:58.942Z,100504.54
2018-06-12T03:29:27.887Z,100514.19
2018-06-12T03:31:56.552Z,100508.79
2018-06-12T03:34:25.495Z,100516.80
2018-06-12T03:36:54.457Z,100517.74
2018-06-12T03:39:23.159Z,100513.80
2018-06-12T03:41:52.329Z,100517.45
2018-06-12T03:44:21.452Z,100514.16
2018-06-12T03:46:50.145Z,100515.21
2018-06-12T03:49:18.847Z,100513.11
2018-06-12T03:51:47.582Z,100505.30
2018-06-12T03:54:16.531Z,100506.05
2018-06-12T03:56:45.610Z,100507.34
2018-06-12T03:59:14.276Z,100506.33
2018-06-12T04:01:42.930Z,100510.91
2018-06-12T04:04:11.726Z,100506.63
2018-06-12T04:06:40.448Z,100514.98
2018-06-12T04:09:09.694Z,100516.34
2018-06-12T04:11:39.167Z,100518.10
2018-06-12T04:14:07.879Z,100519.83
2018-06-12T04:16:37.257Z,100524.07
2018-06-12T04:19:07.277Z,100516.23
2018-06-12T04:21:36.404Z,100522.34
2018-06-12T04:24:05.340Z,100524.07
2018-06-12T04:26:34.012Z,100522.64
2018-06-12T04:29:03.252Z,100517.95
2018-06-12T04:31:32.004Z,100524.07
2018-06-12T04:34:00.911Z,100516.91
2018-06-12T04:36:29.640Z,100519.75
2018-06-12T04:38:58.639Z,100517.31
2018-06-12T04:41:27.571Z,100518.85
2018-06-12T04:43:56.330Z,100522.91
2018-06-12T04:46:24.976Z,100518.78
2018-06-12T04:48:53.761Z,100527.48
2018-06-12T04:51:22.445Z,100528.30
2018-06-12T04:53:51.349Z,100528.16
2018-06-12T04:56:19.979Z,100528.69
2018-06-12T04:58:48.777Z,100533.03
2018-06-12T05:01:18.409Z,100535.84
2018-06-12T05:03:47.141Z,100535.44
2018-06-12T05:06:15.829Z,100547.47
2018-06-12T05:08:44.575Z,100540.20
2018-06-12T05:11:13.231Z,100548.30
2018-06-12T05:13:41.845Z,100543.45
2018-06-12T05:16:10.673Z,100551.52
2018-06-12T05:18:39.672Z,100551.71
2018-06-12T05:21:08.628Z,100550.31
2018-06-12T05:23:37.653Z,100545.67
2018-06-12T05:26:06.505Z,100554.52
2018-06-12T05:28:35.275Z,100554.00
2018-06-12T05:31:03.972Z,100559.13
2018-06-12T05:33:32.637Z,100567.42
2018-06-12T05:36:01.325Z,100566.34
2018-06-12T05:38:30.009Z,100571.55
2018-06-12T05:40:58.732Z,100571.22
2018-06-12T05:43:27.961Z,100572.27
2018-06-12T05:45:57.261Z,100575.12
2018-06-12T05:48:26.184Z,100571.18
2018-06-12T05:50:55.462Z,100568.89
2018-06-12T05:53:24.116Z,100573.80
2018-06-12T05:55:53.060Z,100581.27
2018-06-12T05:58:21.719Z,100584.80
2018-06-12T06:00:50.821Z,100585.66
2018-06-12T06:03:19.638Z,100589.45
2018-06-12T06:05:48.271Z,100584.67
2018-06-12T06:08:17.349Z,100590.69
2018-06-12T06:10:46.207Z,100595.34
2018-06-12T06:13:14.979Z,100594.77
2018-06-12T06:15:43.742Z,100597.38
2018-06-12T06:18:12.503Z,100600.42
2018-06-12T06:20:41.196Z,100594.66
2018-06-12T06:23:09.926Z,100602.41
2018-06-12T06:25:39.023Z,100610.53
2018-06-12T06:28:08.003Z,100606.53
2018-06-12T06:30:36.684Z,100596.02
2018-06-12T06:33:05.684Z,100601.94
2018-06-12T06:35:34.500Z,100607.95
2018-06-12T06:38:03.390Z,100614.75
2018-06-12T06:40:32.202Z,100614.41
2018-06-12T06:43:01.032Z,100612.89
2018-06-12T06:45:29.780Z,100618.00
2018-06-12T06:47:58.746Z,100613.59
2018-06-12T06:50:27.559Z,100620.09
2018-06-12T06:52:56.525Z,100621.72
2018-06-12T06:55:25.282Z,100626.33
2018-06-12T06:57:53.967Z,100629.23
2018-06-12T07:00:23.000Z,100634.60
2018-06-12T07:02:51.657Z,100619.77
2018-06-12T07:05:20.733Z,100626.33
2018-06-12T07:07:49.844Z,100625.95
2018-06-12T07:10:18.900Z,100624.23
2018-06-12T07:12:49.244Z,100627.50
2018-06-12T07:15:19.890Z,100631.09
2018-06-12T07:17:48.920Z,100632.03
2018-06-12T07:21:28.543Z,100627.19
2018-06-12T07:23:57.434Z,100627.28
2018-06-12T07:26:26.144Z,100627.86
2018-06-12T07:28:54.838Z,100630.48
2018-06-12T07:31:23.594Z,100631.52
2018-06-12T07:33:52.664Z,100631.62
2018-06-12T07:36:21.757Z,100631.59
2018-06-12T07:38:50.451Z,100634.28
2018-06-12T07:41:19.976Z,100636.33
2018-06-12T07:43:48.627Z,100638.67
2018-06-12T07:46:17.299Z,100635.12
2018-06-12T07:48:46.238Z,100639.88
2018-06-12T07:51:14.855Z,100637.70
2018-06-12T07:53:43.503Z,100630.74
2018-06-12T07:56:12.181Z,100640.12
2018-06-12T07:58:46.240Z,100640.27
2018-06-12T08:01:16.723Z,100629.05
2018-06-12T08:03:45.473Z,100628.86
2018-06-12T08:06:14.777Z,100629.96
2018-06-12T08:08:47.522Z,100634.23
2018-06-12T08:11:22.021Z,100638.55
2018-06-12T08:13:52.780Z,100634.71
2018-06-12T08:16:21.749Z,100633.95
2018-06-12T08:18:51.398Z,100625.80
2018-06-12T08:21:21.913Z,100623.83
2018-06-12T08:23:50.933Z,100628.22
2018-06-12T08:26:22.417Z,100632.63
2018-06-12T08:28:52.266Z,100628.38
2018-06-12T08:31:20.967Z,100633.78
2018-06-12T08:33:50.813Z,100619.94
2018-06-12T08:36:20.052Z,100633.43
2018-06-12T08:38:51.064Z,100624.07
2018-06-12T08:41:19.979Z,100628.56
2018-06-12T08:43:49.652Z,100629.54
2018-06-12T08:46:20.776Z,100626.92
2018-06-12T08:48:49.655Z,100626.30
2018-06-12T08:51:18.621Z,100629.75
2018-06-12T08:53:47.313Z,100640.11
2018-06-12T08:56:16.891Z,100644.97
2018-06-12T08:58:45.601Z,100648.55
2018-06-12T09:01:16.190Z,100642.89
2018-06-12T09:03:44.961Z,100639.64
2018-06-12T09:06:17.749Z,100647.77
2018-06-12T09:08:47.367Z,100643.93
2018-06-12T09:11:17.758Z,100641.19
2018-06-12T09:13:46.521Z,100641.04
2018-06-12T09:16:15.703Z,100641.61
2018-06-12T09:18:44.545Z,100642.02
2018-06-12T09:21:13.631Z,100644.88
2018-06-12T09:23:42.805Z,100644.99
2018-06-12T09:26:11.643Z,100629.69
2018-06-12T09:28:40.883Z,100623.86
2018-06-12T09:31:09.788Z,100624.54
2018-06-12T09:33:38.520Z,100634.16
2018-06-12T09:36:12.685Z,100623.42
2018-06-12T09:38:41.574Z,100636.42
2018-06-12T09:41:12.193Z,100629.39
2018-06-12T09:43:41.202Z,100633.95
2018-06-12T09:46:10.075Z,100633.86
2018-06-12T09:48:39.200Z,100627.70
2018-06-12T09:51:08.599Z,100622.58
2018-06-12T09:53:37.702Z,100634.17
2018-06-12T09:56:08.906Z,100627.17
2018-06-12T09:58:38.855Z,100633.81
2018-06-12T10:01:13.833Z,100625.52
2018-06-12T10:03:43.419Z,100629.72
2018-06-12T10:06:12.879Z,100629.17
2018-06-12T10:08:42.611Z,100636.55
2018-06-12T10:11:11.369Z,100634.95
2018-06-12T10:13:40.111Z,100626.64
2018-06-12T10:16:11.026Z,100624.00
2018-06-12T10:18:41.385Z,100630.89
2018-06-12T10:21:10.201Z,100623.58
2018-06-12T10:23:39.860Z,100622.86
2018-06-12T10:26:08.564Z,100629.59
2018-06-12T10:28:37.329Z,100628.39
2018-06-12T10:31:07.151Z,100628.03
2018-06-12T10:33:38.007Z,100638.22
2018-06-12T10:36:07.001Z,100633.14
2018-06-12T10:38:35.830Z,100634.66
2018-06-12T10:41:05.189Z,100645.30
2018-06-12T10:43:34.100Z,100637.46
2018-06-12T10:46:02.852Z,100628.28
2018-06-12T10:48:32.149Z,100634.80
2018-06-12T10:51:01.009Z,100634.88
2018-06-12T10:53:30.150Z,100638.13
2018-06-12T10:56:00.053Z,100621.37
2018-06-12T10:58:29.051Z,100638.45
2018-06-12T11:01:03.592Z,100631.89
2018-06-12T11:03:32.663Z,100630.53
2018-06-12T11:06:01.642Z,100624.64
2018-06-12T11:08:30.475Z,100628.28
2018-06-12T11:10:59.597Z,100634.25
2018-06-12T11:13:28.780Z,100628.05
2018-06-12T11:15:58.148Z,100627.98
2018-06-12T11:18:28.113Z,100625.73
2018-06-12T11:20:58.391Z,100612.80
2018-06-12T11:23:27.493Z,100616.50
2018-06-12T11:25:56.693Z,100612.67
2018-06-12T11:28:25.796Z,100614.95
2018-06-12T11:30:55.484Z,100617.53
2018-06-12T11:33:24.290Z,100608.16
2018-06-12T11:35:53.796Z,100609.55
2018-06-12T11:38:23.066Z,100609.79
2018-06-12T11:40:52.199Z,100601.00
2018-06-12T11:43:21.429Z,100601.84
2018-06-12T11:45:50.443Z,100600.27
2018-06-12T11:48:20.644Z,100606.06
2018-06-12T11:50:49.471Z,100595.20
2018-06-12T11:53:19.690Z,100589.52
2018-06-12T11:55:49.679Z,100592.64
2018-06-12T11:58:21.187Z,100592.31
2018-06-12T12:00:50.688Z,100595.03
2018-06-12T12:03:20.189Z,100592.36
2018-06-12T12:05:51.004Z,100598.82
2018-06-12T12:08:22.168Z,100592.95
2018-06-12T12:10:51.551Z,100590.13
2018-06-12T12:13:20.917Z,100585.63
2018-06-12T12:15:50.814Z,100581.83
2018-06-12T12:18:22.589Z,100585.45
2018-06-12T12:20:51.898Z,100586.95
2018-06-12T12:23:29.288Z,100580.59
2018-06-12T12:25:58.962Z,100585.65
2018-06-12T12:28:28.399Z,100594.11
2018-06-12T12:30:58.647Z,100587.13
2018-06-12T12:33:30.450Z,100588.64
2018-06-12T12:36:03.831Z,100586.79
2018-06-12T12:38:35.550Z,100580.73
2018-06-12T12:41:05.016Z,100583.81
2018-06-12T12:43:36.979Z,100578.18
2018-06-12T12:46:10.534Z,100578.75
2018-06-12T12:48:40.557Z,100581.62
2018-06-12T12:51:11.639Z,100577.86
2018-06-12T12:53:41.213Z,100582.74
2018-06-12T12:56:11.646Z,100579.61
2018-06-12T12:58:42.676Z,100579.14
2018-06-12T13:01:13.785Z,100579.29
2018-06-12T13:03:43.393Z,100573.89
2018-06-12T13:06:14.123Z,100573.23
2018-06-12T13:08:43.251Z,100581.45
2018-06-12T13:11:12.360Z,100572.05
2018-06-12T13:13:43.380Z,100566.11
2018-06-12T13:16:14.032Z,100567.91
2018-06-12T13:18:44.373Z,100576.27
2018-06-12T13:21:14.149Z,100566.55
2018-06-12T13:23:43.457Z,100564.17
2018-06-12T13:26:12.128Z,100573.91
2018-06-12T13:28:41.883Z,100566.27
2018-06-12T13:31:11.137Z,100562.37
2018-06-12T13:33:40.231Z,100571.27
2018-06-12T13:36:10.240Z,100567.58
2018-06-12T13:38:39.986Z,100561.06
2018-06-12T13:41:10.879Z,100562.78
2018-06-12T13:43:39.726Z,100550.77
2018-06-12T13:46:09.384Z,100562.06
2018-06-12T13:48:38.216Z,100556.28
2018-06-12T13:51:07.938Z,100560.17
2018-06-12T13:53:37.548Z,100561.41
2018-06-12T13:56:10.204Z,100544.59
2018-06-12T13:58:41.019Z,100548.48
2018-06-12T14:01:10.365Z,100549.35
2018-06-12T14:03:39.669Z,100553.88
2018-06-12T14:06:09.151Z,100559.27
2018-06-12T14:08:39.682Z,100553.51
2018-06-12T14:11:09.099Z,100552.27
2018-06-12T14:13:38.358Z,100555.95
2018-06-12T14:16:07.806Z,100556.28
2018-06-12T14:18:37.430Z,100555.69
2018-06-12T14:21:07.845Z,100555.03
2018-06-12T14:23:38.277Z,100564.57
2018-06-12T14:26:07.755Z,100561.14
2018-06-12T14:28:36.923Z,100556.39
2018-06-12T14:31:07.278Z,100548.81
2018-06-12T14:33:37.112Z,100547.42
2018-06-12T14:36:06.684Z,100550.23
2018-06-12T14:38:36.399Z,100549.08
2018-06-12T14:41:05.148Z,100544.77
2018-06-12T14:43:35.308Z,100535.25
2018-06-12T14:46:04.773Z,100529.42
2018-06-12T14:48:36.040Z,100530.16
2018-06-12T14:51:05.577Z,100532.14
2018-06-12T14:53:34.732Z,100532.95
2018-06-12T14:56:04.680Z,100544.66
2018-06-12T14:58:34.738Z,100537.58
2018-06-12T15:01:07.150Z,100529.09
2018-06-12T15:03:36.577Z,100527.97
2018-06-12T15:06:06.741Z,100526.02
2018-06-12T15:08:37.460Z,100525.80
2018-06-12T15:11:10.521Z,100522.25
2018-06-12T15:13:40.337Z,100527.14
2018-06-12T15:16:09.626Z,100518.48
2018-06-12T15:18:39.650Z,100517.39
2018-06-12T15:21:09.172Z,100514.63
2018-06-12T15:23:38.016Z,100506.95
2018-06-12T15:26:07.178Z,100514.88
2018-06-12T15:28:36.414Z,100511.02
2018-06-12T15:31:05.126Z,100513.58
2018-06-12T15:33:34.690Z,100514.09
2018-06-12T15:36:03.802Z,100517.93
2018-06-12T15:38:34.479Z,100505.65
2018-06-12T15:41:03.971Z,100513.53
2018-06-12T15:43:32.888Z,100511.12
2018-06-12T15:46:01.657Z,100504.03
2018-06-12T15:48:30.408Z,100503.19
2018-06-12T15:51:00.283Z,100499.93
2018-06-12T15:53:29.548Z,100502.06
2018-06-12T15:55:59.792Z,100500.97
2018-06-12T15:58:28.566Z,100496.88
2018-06-12T16:01:02.795Z,100498.23
2018-06-12T16:03:38.122Z,100497.17
2018-06-12T16:06:08.017Z,100500.73
2018-06-12T16:08:36.870Z,100502.66
2018-06-12T16:11:06.901Z,100497.99
2018-06-12T16:13:37.168Z,100501.34
2018-06-12T16:16:07.125Z,100495.68
2018-06-12T16:18:36.020Z,100490.27
2018-06-12T16:21:05.210Z,100501.85
2018-06-12T16:23:34.709Z,100500.69
2018-06-12T16:26:05.074Z,100492.31
2018-06-12T16:28:34.554Z,100495.92
2018-06-12T16:31:03.619Z,100497.78
2018-06-12T16:33:33.165Z,100500.79
2018-06-12T16:36:03.019Z,100504.58
2018-06-12T16:38:32.219Z,100498.13
2018-06-12T16:41:02.895Z,100488.33
2018-06-12T16:43:34.534Z,100490.90
2018-06-12T16:46:04.632Z,100492.14
2018-06-12T16:48:34.537Z,100492.72
2018-06-12T16:51:05.339Z,100493.25
2018-06-12T16:53:34.957Z,100493.39
2018-06-12T16:56:05.280Z,100494.59
2018-06-12T16:58:34.654Z,100495.89
2018-06-12T17:01:03.481Z,100494.30
2018-06-12T17:03:34.236Z,100485.92
2018-06-12T17:06:11.582Z,100489.54
2018-06-12T17:08:40.640Z,100489.52
2018-06-12T17:11:09.335Z,100487.64
2018-06-12T17:13:39.547Z,100495.00
2018-06-12T17:16:09.177Z,100497.72
2018-06-12T17:18:39.978Z,100499.95
2018-06-12T17:21:10.057Z,100503.19
2018-06-12T17:23:38.845Z,100502.95
2018-06-12T17:26:10.093Z,100501.57
2018-06-12T17:28:46.547Z,100501.31
2018-06-12T17:31:19.349Z,100497.47
2018-06-12T17:33:52.016Z,100499.36
2018-06-12T17:36:22.332Z,100499.34
2018-06-12T17:38:51.690Z,100496.67
2018-06-12T17:41:24.181Z,100496.13
2018-06-12T17:43:54.399Z,100501.28
2018-06-12T17:46:24.976Z,100501.00
2018-06-12T17:48:55.574Z,100506.44
2018-06-12T17:51:29.653Z,100513.24
2018-06-12T17:54:02.853Z,100510.78
2018-06-12T17:56:39.431Z,100500.98
2018-06-12T17:59:08.173Z,100500.90
2018-06-12T18:01:39.429Z,100515.63
2018-06-12T18:04:08.867Z,100509.62
2018-06-12T18:06:38.727Z,100502.45
2018-06-12T18:09:08.539Z,100499.73
2018-06-12T18:11:38.597Z,100506.95
2018-06-12T18:14:07.305Z,100508.25
2018-06-12T18:16:36.196Z,100513.24
2018-06-12T18:19:06.094Z,100510.80
2018-06-12T18:21:34.749Z,100507.55
2018-06-12T18:24:03.428Z,100508.09
2018-06-12T18:26:34.040Z,100505.88
2018-06-12T18:29:03.427Z,100515.97
2018-06-12T18:31:33.032Z,100514.86
2018-06-12T18:34:02.197Z,100505.11
2018-06-12T18:36:32.351Z,100515.11
2018-06-12T18:39:01.786Z,100520.72
2018-06-12T18:41:31.096Z,100517.23
2018-06-12T18:44:00.870Z,100518.45
2018-06-12T18:46:30.750Z,100520.75
2018-06-12T18:49:02.431Z,100513.81
2018-06-12T18:51:32.119Z,100516.42
2018-06-12T18:54:06.116Z,100513.12
2018-06-12T18:56:35.711Z,100519.09
2018-06-12T18:59:04.954Z,100522.81
2018-06-12T19:01:37.216Z,100524.66
2018-06-12T19:04:06.261Z,100524.27
2018-06-12T19:06:35.785Z,100525.56
2018-06-12T19:09:07.675Z,100526.56
2018-06-12T19:11:37.528Z,100528.92
2018-06-12T19:14:06.837Z,100521.70
2018-06-12T19:16:43.285Z,100532.81
2018-06-12T19:19:13.237Z,100534.41
2018-06-12T19:21:43.083Z,100537.90
2018-06-12T19:24:11.937Z,100537.66
2018-06-12T19:26:42.039Z,100540.27
2018-06-12T19:29:12.653Z,100538.89
2018-06-12T19:31:44.715Z,100550.02
2018-06-12T19:34:13.433Z,100554.09
2018-06-12T19:36:42.515Z,100562.99
2018-06-12T19:39:12.835Z,100565.41
2018-06-12T19:41:41.996Z,100564.27
2018-06-12T19:44:11.671Z,100561.03
2018-06-12T19:46:41.635Z,100568.05
2018-06-12T19:49:11.502Z,100557.08
2018-06-12T19:51:41.419Z,100556.23
2018-06-12T19:54:10.175Z,100568.72
2018-06-12T19:56:38.924Z,100568.91
2018-06-12T19:59:07.894Z,100565.13
2018-06-12T20:01:37.250Z,100562.37
2018-06-12T20:04:06.655Z,100563.41
2018-06-12T20:06:35.486Z,100571.94
2018-06-12T20:09:07.046Z,100571.64
2018-06-12T20:11:35.821Z,100576.23
2018-06-12T20:14:05.476Z,100576.48
2018-06-12T20:16:35.069Z,100586.25
2018-06-12T20:19:04.101Z,100588.11
2018-06-12T20:21:32.922Z,100588.11
2018-06-12T20:24:02.950Z,100594.98
2018-06-12T20:26:32.096Z,100599.52
2018-06-12T20:29:01.370Z,100593.33
2018-06-12T20:31:30.702Z,100601.75
2018-06-12T20:34:00.259Z,100603.58
2018-06-12T20:36:30.831Z,100607.38
2018-06-12T20:39:00.640Z,100595.19
2018-06-12T20:41:29.494Z,100590.78
2018-06-12T20:43:58.828Z,100596.44
2018-06-12T20:46:27.652Z,100605.61
2018-06-12T20:48:57.693Z,100615.06
2018-06-12T20:51:27.462Z,100612.00
2018-06-12T20:53:56.495Z,100615.98
2018-06-12T20:56:25.736Z,100617.63
2018-06-12T20:58:54.860Z,100620.03
2018-06-12T21:01:24.476Z,100614.62
2018-06-12T21:03:55.124Z,100621.69
2018-06-12T21:06:27.846Z,100614.95
2018-06-12T21:08:57.830Z,100628.55
2018-06-12T21:11:27.327Z,100621.77
2018-06-12T21:13:57.084Z,100617.24
2018-06-12T21:16:26.833Z,100616.16
2018-06-12T21:18:56.254Z,100619.22
2018-06-12T21:21:26.962Z,100613.27
2018-06-12T21:23:56.116Z,100611.83
2018-06-12T21:26:26.580Z,100610.47
2018-06-12T21:28:56.429Z,100603.12
2018-06-12T21:31:26.805Z,100607.50
2018-06-12T21:33:56.406Z,100613.66
2018-06-12T21:36:26.538Z,100612.77
2018-06-12T21:38:56.602Z,100607.85
2018-06-12T21:41:27.087Z,100609.97
2018-06-12T21:43:56.959Z,100602.61
2018-06-12T21:46:27.452Z,100599.14
2018-06-12T21:48:56.228Z,100603.67
2018-06-12T21:51:26.253Z,100607.17
2018-06-12T21:53:54.952Z,100601.63
2018-06-12T21:56:24.090Z,100606.28
2018-06-12T21:58:53.601Z,100611.76
2018-06-12T22:01:22.458Z,100615.29
2018-06-12T22:03:52.630Z,100610.73
2018-06-12T22:06:22.680Z,100610.64
2018-06-12T22:08:52.536Z,100608.14
2018-06-12T22:11:22.544Z,100608.69
2018-06-12T22:13:51.169Z,100607.05
2018-06-12T22:16:24.099Z,100615.46
2018-06-12T22:18:53.414Z,100610.55
2018-06-12T22:21:24.094Z,100607.64
2018-06-12T22:23:54.443Z,100609.19
2018-06-12T22:26:23.150Z,100613.28
2018-06-12T22:28:52.560Z,100609.03
2018-06-12T22:31:23.560Z,100611.94
2018-06-12T22:33:52.986Z,100610.59
2018-06-12T22:36:23.324Z,100617.06
2018-06-12T22:38:52.315Z,100610.20
2018-06-12T22:41:21.900Z,100615.64
2018-06-12T22:43:50.755Z,100618.41
2018-06-12T22:46:20.414Z,100616.47
2018-06-12T22:48:49.995Z,100619.53
2018-06-12T22:51:20.811Z,100621.41
2018-06-12T22:53:50.576Z,100622.38
2018-06-12T22:56:20.065Z,100629.66
2018-06-12T22:58:48.726Z,100629.30
2018-06-12T23:01:17.666Z,100624.19
2018-06-12T23:03:47.854Z,100627.95
2018-06-12T23:06:17.274Z,100632.50
2018-06-12T23:08:46.850Z,100634.41
2018-06-12T23:11:15.537Z,100626.80
2018-06-12T23:13:44.757Z,100635.16
2018-06-12T23:16:13.778Z,100625.76
2018-06-12T23:18:44.191Z,100623.65
2018-06-12T23:21:24.070Z,100620.75
2018-06-12T23:23:53.576Z,100618.64
2018-06-12T23:26:22.294Z,100623.55
2018-06-12T23:28:51.974Z,100620.85
2018-06-12T23:31:21.581Z,100617.63
2018-06-12T23:33:50.931Z,100612.73
2018-06-12T23:36:20.079Z,100612.17
2018-06-12T23:38:50.526Z,100607.10
2018-06-12T23:41:20.046Z,100607.33
2018-06-12T23:43:50.182Z,100600.41
2018-06-12T23:46:20.554Z,100603.11
2018-06-12T23:48:49.571Z,100602.52
2018-06-12T23:51:19.890Z,100601.06
2018-06-12T23:53:49.306Z,100598.82
2018-06-12T23:56:18.898Z,100595.78
2018-06-12T23:58:50.292Z,100595.25
